sensor_id;sensor_type;location;lat;lon;timestamp;temperature;humidity
75134;HTU21D;73631;44.326;40.200;2023-11-22T00:01:30;6.78;68.58
75134;HTU21D;73631;44.326;40.200;2023-11-22T00:03:57;6.74;68.62
75134;HTU21D;73631;44.326;40.200;2023-11-22T00:06:43;6.70;68.66
75134;HTU21D;73631;44.326;40.200;2023-11-22T00:09:10;6.68;68.78
75134;HTU21D;73631;44.326;40.200;2023-11-22T00:11:36;6.66;68.80
75134;HTU21D;73631;44.326;40.200;2023-11-22T00:14:04;6.60;68.83
75134;HTU21D;73631;44.326;40.200;2023-11-22T00:16:31;6.56;68.91
75134;HTU21D;73631;44.326;40.200;2023-11-22T00:18:58;6.55;68.98
75134;HTU21D;73631;44.326;40.200;2023-11-22T00:21:26;6.50;68.94
75134;HTU21D;73631;44.326;40.200;2023-11-22T00:24:08;6.44;69.04
75134;HTU21D;73631;44.326;40.200;2023-11-22T00:26:35;6.40;69.08
75134;HTU21D;73631;44.326;40.200;2023-11-22T00:29:01;6.37;69.19
75134;HTU21D;73631;44.326;40.200;2023-11-22T00:31:29;6.33;69.23
75134;HTU21D;73631;44.326;40.200;2023-11-22T00:33:55;6.29;69.25
75134;HTU21D;73631;44.326;40.200;2023-11-22T00:36:23;6.25;69.30
75134;HTU21D;73631;44.326;40.200;2023-11-22T00:38:50;6.21;69.39
75134;HTU21D;73631;44.326;40.200;2023-11-22T00:41:17;6.20;69.50
75134;HTU21D;73631;44.326;40.200;2023-11-22T00:43:44;6.19;69.55
75134;HTU21D;73631;44.326;40.200;2023-11-22T00:46:11;6.19;69.61
75134;HTU21D;73631;44.326;40.200;2023-11-22T00:48:38;6.19;69.65
75134;HTU21D;73631;44.326;40.200;2023-11-22T00:51:05;6.17;69.64
75134;HTU21D;73631;44.326;40.200;2023-11-22T00:53:38;6.17;69.66
75134;HTU21D;73631;44.326;40.200;2023-11-22T00:56:05;6.14;69.61
75134;HTU21D;73631;44.326;40.200;2023-11-22T00:58:33;6.14;69.65
75134;HTU21D;73631;44.326;40.200;2023-11-22T01:01:00;6.10;69.67
75134;HTU21D;73631;44.326;40.200;2023-11-22T01:03:27;6.06;69.67
75134;HTU21D;73631;44.326;40.200;2023-11-22T01:05:54;6.02;69.74
75134;HTU21D;73631;44.326;40.200;2023-11-22T01:08:21;6.01;69.78
75134;HTU21D;73631;44.326;40.200;2023-11-22T01:10:48;6.00;69.89
75134;HTU21D;73631;44.326;40.200;2023-11-22T01:13:15;5.98;69.87
75134;HTU21D;73631;44.326;40.200;2023-11-22T01:15:43;5.94;69.87
75134;HTU21D;73631;44.326;40.200;2023-11-22T01:18:11;5.92;69.94
75134;HTU21D;73631;44.326;40.200;2023-11-22T01:20:37;5.89;69.94
75134;HTU21D;73631;44.326;40.200;2023-11-22T01:23:04;5.85;70.00
75134;HTU21D;73631;44.326;40.200;2023-11-22T01:25:30;5.83;70.07
75134;HTU21D;73631;44.326;40.200;2023-11-22T01:27:58;5.82;70.09
75134;HTU21D;73631;44.326;40.200;2023-11-22T01:30:26;5.79;70.10
75134;HTU21D;73631;44.326;40.200;2023-11-22T01:32:55;5.76;70.19
75134;HTU21D;73631;44.326;40.200;2023-11-22T01:35:22;5.74;70.25
75134;HTU21D;73631;44.326;40.200;2023-11-22T01:37:49;5.72;70.29
75134;HTU21D;73631;44.326;40.200;2023-11-22T01:40:16;5.71;70.32
75134;HTU21D;73631;44.326;40.200;2023-11-22T01:42:43;5.71;70.33
75134;HTU21D;73631;44.326;40.200;2023-11-22T01:45:10;5.68;70.28
75134;HTU21D;73631;44.326;40.200;2023-11-22T01:47:38;5.65;70.32
75134;HTU21D;73631;44.326;40.200;2023-11-22T01:50:08;5.64;70.39
75134;HTU21D;73631;44.326;40.200;2023-11-22T01:52:36;5.62;70.49
75134;HTU21D;73631;44.326;40.200;2023-11-22T01:55:03;5.60;70.53
75134;HTU21D;73631;44.326;40.200;2023-11-22T01:57:36;5.60;70.58
75134;HTU21D;73631;44.326;40.200;2023-11-22T02:00:04;5.59;70.59
75134;HTU21D;73631;44.326;40.200;2023-11-22T02:02:39;5.56;70.64
75134;HTU21D;73631;44.326;40.200;2023-11-22T02:05:07;5.53;70.63
75134;HTU21D;73631;44.326;40.200;2023-11-22T02:07:34;5.51;70.61
75134;HTU21D;73631;44.326;40.200;2023-11-22T02:10:00;5.49;70.70
75134;HTU21D;73631;44.326;40.200;2023-11-22T02:12:34;5.46;70.74
75134;HTU21D;73631;44.326;40.200;2023-11-22T02:15:00;5.45;70.85
75134;HTU21D;73631;44.326;40.200;2023-11-22T02:17:27;5.46;70.93
75134;HTU21D;73631;44.326;40.200;2023-11-22T02:19:55;5.46;70.94
75134;HTU21D;73631;44.326;40.200;2023-11-22T02:22:22;5.47;70.98
75134;HTU21D;73631;44.326;40.200;2023-11-22T02:24:49;5.47;71.01
75134;HTU21D;73631;44.326;40.200;2023-11-22T02:27:16;5.47;71.02
75134;HTU21D;73631;44.326;40.200;2023-11-22T02:29:43;5.47;71.06
75134;HTU21D;73631;44.326;40.200;2023-11-22T02:32:11;5.48;71.06
75134;HTU21D;73631;44.326;40.200;2023-11-22T02:34:39;5.48;71.13
75134;HTU21D;73631;44.326;40.200;2023-11-22T02:37:05;5.50;71.17
75134;HTU21D;73631;44.326;40.200;2023-11-22T02:42:30;5.53;71.21
75134;HTU21D;73631;44.326;40.200;2023-11-22T02:44:58;5.54;71.28
75134;HTU21D;73631;44.326;40.200;2023-11-22T02:47:25;5.55;71.30
75134;HTU21D;73631;44.326;40.200;2023-11-22T02:49:52;5.57;71.33
75134;HTU21D;73631;44.326;40.200;2023-11-22T02:52:21;5.60;71.29
75134;HTU21D;73631;44.326;40.200;2023-11-22T02:54:48;5.60;71.29
75134;HTU21D;73631;44.326;40.200;2023-11-22T02:57:15;5.60;71.29
75134;HTU21D;73631;44.326;40.200;2023-11-22T02:59:43;5.61;71.32
75134;HTU21D;73631;44.326;40.200;2023-11-22T03:02:11;5.61;71.33
75134;HTU21D;73631;44.326;40.200;2023-11-22T03:04:38;5.60;71.30
75134;HTU21D;73631;44.326;40.200;2023-11-22T03:07:05;5.60;71.33
75134;HTU21D;73631;44.326;40.200;2023-11-22T03:09:33;5.59;71.32
75134;HTU21D;73631;44.326;40.200;2023-11-22T03:12:00;5.57;71.31
75134;HTU21D;73631;44.326;40.200;2023-11-22T03:14:28;5.56;71.26
75134;HTU21D;73631;44.326;40.200;2023-11-22T03:16:55;5.52;71.30
75134;HTU21D;73631;44.326;40.200;2023-11-22T03:19:22;5.51;71.35
75134;HTU21D;73631;44.326;40.200;2023-11-22T03:21:49;5.49;71.36
75134;HTU21D;73631;44.326;40.200;2023-11-22T03:24:15;5.47;71.38
75134;HTU21D;73631;44.326;40.200;2023-11-22T03:26:43;5.45;71.45
75134;HTU21D;73631;44.326;40.200;2023-11-22T03:29:14;5.42;71.45
75134;HTU21D;73631;44.326;40.200;2023-11-22T03:31:44;5.42;71.46
75134;HTU21D;73631;44.326;40.200;2023-11-22T03:34:14;5.39;71.49
75134;HTU21D;73631;44.326;40.200;2023-11-22T03:36:41;5.37;71.47
75134;HTU21D;73631;44.326;40.200;2023-11-22T03:39:07;5.34;71.53
75134;HTU21D;73631;44.326;40.200;2023-11-22T03:41:36;5.31;71.64
75134;HTU21D;73631;44.326;40.200;2023-11-22T03:44:05;5.31;71.71
75134;HTU21D;73631;44.326;40.200;2023-11-22T03:46:35;5.24;71.58
75134;HTU21D;73631;44.326;40.200;2023-11-22T03:49:03;5.20;71.69
75134;HTU21D;73631;44.326;40.200;2023-11-22T03:51:30;5.18;71.82
75134;HTU21D;73631;44.326;40.200;2023-11-22T03:53:57;5.16;71.89
75134;HTU21D;73631;44.326;40.200;2023-11-22T03:56:25;5.16;71.91
75134;HTU21D;73631;44.326;40.200;2023-11-22T03:58:51;5.16;71.90
75134;HTU21D;73631;44.326;40.200;2023-11-22T04:01:18;5.17;71.90
75134;HTU21D;73631;44.326;40.200;2023-11-22T04:03:45;5.16;71.88
75134;HTU21D;73631;44.326;40.200;2023-11-22T04:06:14;5.17;71.88
75134;HTU21D;73631;44.326;40.200;2023-11-22T04:08:43;5.19;71.90
75134;HTU21D;73631;44.326;40.200;2023-11-22T04:11:10;5.18;71.88
75134;HTU21D;73631;44.326;40.200;2023-11-22T04:13:37;5.18;71.88
75134;HTU21D;73631;44.326;40.200;2023-11-22T04:16:06;5.18;71.90
75134;HTU21D;73631;44.326;40.200;2023-11-22T04:18:39;5.15;71.86
75134;HTU21D;73631;44.326;40.200;2023-11-22T04:21:07;5.13;71.84
75134;HTU21D;73631;44.326;40.200;2023-11-22T04:23:34;5.10;71.87
75134;HTU21D;73631;44.326;40.200;2023-11-22T04:26:01;5.08;71.88
75134;HTU21D;73631;44.326;40.200;2023-11-22T04:28:29;5.05;71.93
75134;HTU21D;73631;44.326;40.200;2023-11-22T04:30:57;5.04;71.94
75134;HTU21D;73631;44.326;40.200;2023-11-22T04:33:24;5.02;71.96
75134;HTU21D;73631;44.326;40.200;2023-11-22T04:35:54;5.01;71.93
75134;HTU21D;73631;44.326;40.200;2023-11-22T04:38:22;4.98;71.95
75134;HTU21D;73631;44.326;40.200;2023-11-22T04:40:49;4.96;71.95
75134;HTU21D;73631;44.326;40.200;2023-11-22T04:43:16;4.95;71.96
75134;HTU21D;73631;44.326;40.200;2023-11-22T04:45:43;4.93;71.97
75134;HTU21D;73631;44.326;40.200;2023-11-22T04:48:09;4.92;72.02
75134;HTU21D;73631;44.326;40.200;2023-11-22T04:50:36;4.91;72.05
75134;HTU21D;73631;44.326;40.200;2023-11-22T04:53:03;4.92;72.11
75134;HTU21D;73631;44.326;40.200;2023-11-22T04:55:29;4.91;72.09
75134;HTU21D;73631;44.326;40.200;2023-11-22T04:57:56;4.90;72.07
75134;HTU21D;73631;44.326;40.200;2023-11-22T05:00:24;4.88;72.05
75134;HTU21D;73631;44.326;40.200;2023-11-22T05:02:51;4.84;72.06
75134;HTU21D;73631;44.326;40.200;2023-11-22T05:05:18;4.83;72.05
75134;HTU21D;73631;44.326;40.200;2023-11-22T05:07:44;4.79;72.13
75134;HTU21D;73631;44.326;40.200;2023-11-22T05:10:11;4.78;72.18
75134;HTU21D;73631;44.326;40.200;2023-11-22T05:12:37;4.78;72.16
75134;HTU21D;73631;44.326;40.200;2023-11-22T05:15:06;4.77;72.19
75134;HTU21D;73631;44.326;40.200;2023-11-22T05:17:34;4.76;72.22
75134;HTU21D;73631;44.326;40.200;2023-11-22T05:20:01;4.75;72.23
75134;HTU21D;73631;44.326;40.200;2023-11-22T05:22:29;4.73;72.21
75134;HTU21D;73631;44.326;40.200;2023-11-22T05:24:56;4.71;72.26
75134;HTU21D;73631;44.326;40.200;2023-11-22T05:27:23;4.67;72.27
75134;HTU21D;73631;44.326;40.200;2023-11-22T05:29:50;4.65;72.35
75134;HTU21D;73631;44.326;40.200;2023-11-22T05:32:16;4.65;72.36
75134;HTU21D;73631;44.326;40.200;2023-11-22T05:34:43;4.64;72.40
75134;HTU21D;73631;44.326;40.200;2023-11-22T05:37:12;4.65;72.47
75134;HTU21D;73631;44.326;40.200;2023-11-22T05:39:38;4.66;72.56
75134;HTU21D;73631;44.326;40.200;2023-11-22T05:42:05;4.69;72.61
75134;HTU21D;73631;44.326;40.200;2023-11-22T05:44:33;4.73;72.62
75134;HTU21D;73631;44.326;40.200;2023-11-22T05:46:59;4.75;72.62
75134;HTU21D;73631;44.326;40.200;2023-11-22T05:49:26;4.78;72.66
75134;HTU21D;73631;44.326;40.200;2023-11-22T05:51:53;4.82;72.69
75134;HTU21D;73631;44.326;40.200;2023-11-22T05:54:19;4.83;72.68
75134;HTU21D;73631;44.326;40.200;2023-11-22T05:56:45;4.87;72.73
75134;HTU21D;73631;44.326;40.200;2023-11-22T05:59:13;4.93;72.81
75134;HTU21D;73631;44.326;40.200;2023-11-22T06:01:39;4.98;72.86
75134;HTU21D;73631;44.326;40.200;2023-11-22T06:04:07;5.06;72.93
75134;HTU21D;73631;44.326;40.200;2023-11-22T06:06:36;5.15;72.96
75134;HTU21D;73631;44.326;40.200;2023-11-22T06:09:03;5.24;73.03
75134;HTU21D;73631;44.326;40.200;2023-11-22T06:11:31;5.38;73.22
75134;HTU21D;73631;44.326;40.200;2023-11-22T06:13:58;5.53;73.25
75134;HTU21D;73631;44.326;40.200;2023-11-22T06:16:25;5.68;73.25
75134;HTU21D;73631;44.326;40.200;2023-11-22T06:18:52;5.82;73.03
75134;HTU21D;73631;44.326;40.200;2023-11-22T06:21:19;5.91;72.81
75134;HTU21D;73631;44.326;40.200;2023-11-22T06:23:45;5.95;72.74
75134;HTU21D;73631;44.326;40.200;2023-11-22T06:26:12;6.01;72.77
75134;HTU21D;73631;44.326;40.200;2023-11-22T06:28:39;6.10;72.81
75134;HTU21D;73631;44.326;40.200;2023-11-22T06:31:07;6.20;72.78
75134;HTU21D;73631;44.326;40.200;2023-11-22T06:33:34;6.29;72.73
75134;HTU21D;73631;44.326;40.200;2023-11-22T06:36:03;6.41;72.75
75134;HTU21D;73631;44.326;40.200;2023-11-22T06:38:30;6.51;72.54
75134;HTU21D;73631;44.326;40.200;2023-11-22T06:40:57;6.56;72.47
75134;HTU21D;73631;44.326;40.200;2023-11-22T06:43:23;6.65;72.45
75134;HTU21D;73631;44.326;40.200;2023-11-22T06:45:50;6.78;72.38
75134;HTU21D;73631;44.326;40.200;2023-11-22T06:48:17;6.87;72.29
75134;HTU21D;73631;44.326;40.200;2023-11-22T06:50:44;6.98;72.19
75134;HTU21D;73631;44.326;40.200;2023-11-22T06:53:11;7.05;71.99
75134;HTU21D;73631;44.326;40.200;2023-11-22T06:55:39;7.10;71.96
75134;HTU21D;73631;44.326;40.200;2023-11-22T06:58:06;7.15;71.93
75134;HTU21D;73631;44.326;40.200;2023-11-22T07:00:34;7.22;71.80
75134;HTU21D;73631;44.326;40.200;2023-11-22T07:03:01;7.26;71.74
75134;HTU21D;73631;44.326;40.200;2023-11-22T07:05:28;7.28;71.69
75134;HTU21D;73631;44.326;40.200;2023-11-22T07:07:56;7.32;71.66
75134;HTU21D;73631;44.326;40.200;2023-11-22T07:10:23;7.38;71.63
75134;HTU21D;73631;44.326;40.200;2023-11-22T07:12:51;7.43;71.51
75134;HTU21D;73631;44.326;40.200;2023-11-22T07:15:19;7.47;71.48
75134;HTU21D;73631;44.326;40.200;2023-11-22T07:17:45;7.54;71.42
75134;HTU21D;73631;44.326;40.200;2023-11-22T07:20:12;7.57;71.36
75134;HTU21D;73631;44.326;40.200;2023-11-22T07:22:43;7.65;71.39
75134;HTU21D;73631;44.326;40.200;2023-11-22T07:25:10;7.73;71.30
75134;HTU21D;73631;44.326;40.200;2023-11-22T07:27:46;7.81;71.21
75134;HTU21D;73631;44.326;40.200;2023-11-22T07:30:14;7.91;71.25
75134;HTU21D;73631;44.326;40.200;2023-11-22T07:32:41;8.01;71.10
75134;HTU21D;73631;44.326;40.200;2023-11-22T07:35:09;8.13;71.04
75134;HTU21D;73631;44.326;40.200;2023-11-22T07:37:36;8.23;70.92
75134;HTU21D;73631;44.326;40.200;2023-11-22T07:40:44;8.36;70.85
75134;HTU21D;73631;44.326;40.200;2023-11-22T07:43:20;8.48;70.86
75134;HTU21D;73631;44.326;40.200;2023-11-22T07:45:46;8.59;70.59
75134;HTU21D;73631;44.326;40.200;2023-11-22T07:48:14;8.66;70.42
75134;HTU21D;73631;44.326;40.200;2023-11-22T07:50:41;8.71;70.35
75134;HTU21D;73631;44.326;40.200;2023-11-22T07:53:10;8.75;70.33
75134;HTU21D;73631;44.326;40.200;2023-11-22T07:55:38;8.82;70.32
75134;HTU21D;73631;44.326;40.200;2023-11-22T07:58:05;8.90;70.32
75134;HTU21D;73631;44.326;40.200;2023-11-22T08:00:34;9.02;70.35
75134;HTU21D;73631;44.326;40.200;2023-11-22T08:03:01;9.17;70.37
75134;HTU21D;73631;44.326;40.200;2023-11-22T08:05:30;9.36;70.16
75134;HTU21D;73631;44.326;40.200;2023-11-22T08:08:03;9.55;69.89
75134;HTU21D;73631;44.326;40.200;2023-11-22T08:10:35;9.71;69.77
75134;HTU21D;73631;44.326;40.200;2023-11-22T08:13:01;9.95;69.60
75134;HTU21D;73631;44.326;40.200;2023-11-22T08:15:29;10.23;69.36
75134;HTU21D;73631;44.326;40.200;2023-11-22T08:17:59;10.50;69.04
75134;HTU21D;73631;44.326;40.200;2023-11-22T08:20:26;10.78;68.60
75134;HTU21D;73631;44.326;40.200;2023-11-22T08:22:53;11.07;68.34
75134;HTU21D;73631;44.326;40.200;2023-11-22T08:25:20;11.34;68.05
75134;HTU21D;73631;44.326;40.200;2023-11-22T08:27:46;11.64;67.63
75134;HTU21D;73631;44.326;40.200;2023-11-22T08:30:13;11.92;67.06
75134;HTU21D;73631;44.326;40.200;2023-11-22T08:32:45;12.18;66.67
75134;HTU21D;73631;44.326;40.200;2023-11-22T08:35:14;12.40;66.45
75134;HTU21D;73631;44.326;40.200;2023-11-22T08:37:42;12.58;65.97
75134;HTU21D;73631;44.326;40.200;2023-11-22T08:40:10;12.75;65.79
75134;HTU21D;73631;44.326;40.200;2023-11-22T08:42:46;12.94;65.73
75134;HTU21D;73631;44.326;40.200;2023-11-22T08:45:13;13.11;65.43
75134;HTU21D;73631;44.326;40.200;2023-11-22T08:47:40;13.22;65.18
75134;HTU21D;73631;44.326;40.200;2023-11-22T08:50:08;13.29;64.86
75134;HTU21D;73631;44.326;40.200;2023-11-22T08:52:40;13.29;64.54
75134;HTU21D;73631;44.326;40.200;2023-11-22T08:55:08;13.30;64.70
75134;HTU21D;73631;44.326;40.200;2023-11-22T08:57:38;13.35;64.61
75134;HTU21D;73631;44.326;40.200;2023-11-22T09:00:05;13.43;64.54
75134;HTU21D;73631;44.326;40.200;2023-11-22T09:02:36;13.46;64.48
75134;HTU21D;73631;44.326;40.200;2023-11-22T09:05:04;13.52;64.19
75134;HTU21D;73631;44.326;40.200;2023-11-22T09:07:32;13.56;63.96
75134;HTU21D;73631;44.326;40.200;2023-11-22T09:10:01;13.60;63.96
75134;HTU21D;73631;44.326;40.200;2023-11-22T09:12:42;13.70;63.75
75134;HTU21D;73631;44.326;40.200;2023-11-22T09:15:12;13.81;63.69
75134;HTU21D;73631;44.326;40.200;2023-11-22T09:17:44;13.94;63.51
75134;HTU21D;73631;44.326;40.200;2023-11-22T09:20:12;14.04;63.17
75134;HTU21D;73631;44.326;40.200;2023-11-22T09:22:43;14.08;62.65
75134;HTU21D;73631;44.326;40.200;2023-11-22T09:25:15;14.14;62.84
75134;HTU21D;73631;44.326;40.200;2023-11-22T09:27:46;14.22;62.60
75134;HTU21D;73631;44.326;40.200;2023-11-22T09:30:14;14.34;62.62
75134;HTU21D;73631;44.326;40.200;2023-11-22T09:33:06;14.47;62.21
75134;HTU21D;73631;44.326;40.200;2023-11-22T09:35:34;14.54;61.75
75134;HTU21D;73631;44.326;40.200;2023-11-22T09:38:03;14.58;61.70
75134;HTU21D;73631;44.326;40.200;2023-11-22T09:40:30;14.67;61.56
75134;HTU21D;73631;44.326;40.200;2023-11-22T09:43:00;14.72;61.54
75134;HTU21D;73631;44.326;40.200;2023-11-22T09:45:29;14.75;61.09
75134;HTU21D;73631;44.326;40.200;2023-11-22T09:47:56;14.79;60.96
75134;HTU21D;73631;44.326;40.200;2023-11-22T09:50:37;14.80;60.74
75134;HTU21D;73631;44.326;40.200;2023-11-22T09:53:06;14.82;62.07
75134;HTU21D;73631;44.326;40.200;2023-11-22T09:55:35;14.92;61.11
75134;HTU21D;73631;44.326;40.200;2023-11-22T09:58:04;14.94;60.93
75134;HTU21D;73631;44.326;40.200;2023-11-22T10:00:31;14.97;60.68
75134;HTU21D;73631;44.326;40.200;2023-11-22T10:02:58;15.02;60.60
75134;HTU21D;73631;44.326;40.200;2023-11-22T10:05:25;15.11;60.26
75134;HTU21D;73631;44.326;40.200;2023-11-22T10:07:54;15.08;59.93
75134;HTU21D;73631;44.326;40.200;2023-11-22T10:10:22;14.96;59.57
75134;HTU21D;73631;44.326;40.200;2023-11-22T10:12:49;14.81;59.68
75134;HTU21D;73631;44.326;40.200;2023-11-22T10:15:17;14.65;59.73
75134;HTU21D;73631;44.326;40.200;2023-11-22T10:17:54;14.52;59.55
75134;HTU21D;73631;44.326;40.200;2023-11-22T10:20:42;14.30;59.80
75134;HTU21D;73631;44.326;40.200;2023-11-22T10:23:10;14.08;59.88
75134;HTU21D;73631;44.326;40.200;2023-11-22T10:25:46;13.89;60.03
75134;HTU21D;73631;44.326;40.200;2023-11-22T10:28:16;13.71;60.21
75134;HTU21D;73631;44.326;40.200;2023-11-22T10:30:46;13.58;60.37
75134;HTU21D;73631;44.326;40.200;2023-11-22T10:33:14;13.44;60.47
75134;HTU21D;73631;44.326;40.200;2023-11-22T10:35:45;13.32;60.57
75134;HTU21D;73631;44.326;40.200;2023-11-22T10:38:16;13.19;60.80
75134;HTU21D;73631;44.326;40.200;2023-11-22T10:40:43;13.06;60.89
75134;HTU21D;73631;44.326;40.200;2023-11-22T10:43:33;12.93;61.11
75134;HTU21D;73631;44.326;40.200;2023-11-22T10:46:04;12.84;61.14
75134;HTU21D;73631;44.326;40.200;2023-11-22T10:48:51;12.73;61.29
75134;HTU21D;73631;44.326;40.200;2023-11-22T10:51:40;12.61;61.48
75134;HTU21D;73631;44.326;40.200;2023-11-22T10:54:11;12.51;61.59
75134;HTU21D;73631;44.326;40.200;2023-11-22T10:56:55;12.43;61.67
75134;HTU21D;73631;44.326;40.200;2023-11-22T10:59:30;12.34;61.84
75134;HTU21D;73631;44.326;40.200;2023-11-22T11:02:01;12.27;61.93
75134;HTU21D;73631;44.326;40.200;2023-11-22T11:07:00;12.12;62.07
75134;HTU21D;73631;44.326;40.200;2023-11-22T11:09:28;12.02;62.09
75134;HTU21D;73631;44.326;40.200;2023-11-22T11:11:58;11.94;62.21
75134;HTU21D;73631;44.326;40.200;2023-11-22T11:14:26;11.88;62.26
75134;HTU21D;73631;44.326;40.200;2023-11-22T11:16:54;11.78;62.28
75134;HTU21D;73631;44.326;40.200;2023-11-22T11:19:24;11.71;62.41
75134;HTU21D;73631;44.326;40.200;2023-11-22T11:21:51;11.64;62.45
75134;HTU21D;73631;44.326;40.200;2023-11-22T11:24:18;11.60;62.53
75134;HTU21D;73631;44.326;40.200;2023-11-22T11:26:49;11.53;62.53
75134;HTU21D;73631;44.326;40.200;2023-11-22T11:29:30;11.43;62.57
75134;HTU21D;73631;44.326;40.200;2023-11-22T11:31:57;11.34;62.70
75134;HTU21D;73631;44.326;40.200;2023-11-22T11:34:24;11.28;62.79
75134;HTU21D;73631;44.326;40.200;2023-11-22T11:36:54;11.20;62.86
75134;HTU21D;73631;44.326;40.200;2023-11-22T11:39:25;11.14;62.88
75134;HTU21D;73631;44.326;40.200;2023-11-22T11:42:08;11.04;62.95
75134;HTU21D;73631;44.326;40.200;2023-11-22T11:44:35;10.97;63.08
75134;HTU21D;73631;44.326;40.200;2023-11-22T11:47:11;10.87;63.12
75134;HTU21D;73631;44.326;40.200;2023-11-22T11:49:38;10.80;63.22
75134;HTU21D;73631;44.326;40.200;2023-11-22T11:52:10;10.73;63.29
75134;HTU21D;73631;44.326;40.200;2023-11-22T11:54:36;10.65;63.37
75134;HTU21D;73631;44.326;40.200;2023-11-22T11:57:04;10.60;63.47
75134;HTU21D;73631;44.326;40.200;2023-11-22T11:59:33;10.56;63.50
75134;HTU21D;73631;44.326;40.200;2023-11-22T12:02:01;10.51;63.60
75134;HTU21D;73631;44.326;40.200;2023-11-22T12:04:27;10.46;63.63
75134;HTU21D;73631;44.326;40.200;2023-11-22T12:06:54;10.42;63.69
75134;HTU21D;73631;44.326;40.200;2023-11-22T12:09:27;10.39;63.75
75134;HTU21D;73631;44.326;40.200;2023-11-22T12:12:00;10.34;63.79
75134;HTU21D;73631;44.326;40.200;2023-11-22T12:14:28;10.31;63.87
75134;HTU21D;73631;44.326;40.200;2023-11-22T12:16:54;10.26;63.92
75134;HTU21D;73631;44.326;40.200;2023-11-22T12:19:22;10.24;63.98
75134;HTU21D;73631;44.326;40.200;2023-11-22T12:21:50;10.23;64.06
75134;HTU21D;73631;44.326;40.200;2023-11-22T12:24:16;10.21;64.08
75134;HTU21D;73631;44.326;40.200;2023-11-22T12:26:47;10.19;64.14
75134;HTU21D;73631;44.326;40.200;2023-11-22T12:29:19;10.20;64.18
75134;HTU21D;73631;44.326;40.200;2023-11-22T12:31:49;10.19;64.26
75134;HTU21D;73631;44.326;40.200;2023-11-22T12:34:17;10.19;64.30
75134;HTU21D;73631;44.326;40.200;2023-11-22T12:36:46;10.19;64.34
75134;HTU21D;73631;44.326;40.200;2023-11-22T12:39:16;10.18;64.37
75134;HTU21D;73631;44.326;40.200;2023-11-22T12:41:50;10.15;64.42
75134;HTU21D;73631;44.326;40.200;2023-11-22T12:44:18;10.14;64.43
75134;HTU21D;73631;44.326;40.200;2023-11-22T12:46:53;10.13;64.49
75134;HTU21D;73631;44.326;40.200;2023-11-22T12:49:25;10.13;64.59
75134;HTU21D;73631;44.326;40.200;2023-11-22T12:52:04;10.13;64.62
75134;HTU21D;73631;44.326;40.200;2023-11-22T12:54:31;10.12;64.68
75134;HTU21D;73631;44.326;40.200;2023-11-22T12:56:59;10.10;64.72
75134;HTU21D;73631;44.326;40.200;2023-11-22T12:59:26;10.09;64.74
75134;HTU21D;73631;44.326;40.200;2023-11-22T13:01:56;10.06;64.79
75134;HTU21D;73631;44.326;40.200;2023-11-22T13:04:24;10.06;64.88
75134;HTU21D;73631;44.326;40.200;2023-11-22T13:06:50;10.04;64.92
75134;HTU21D;73631;44.326;40.200;2023-11-22T13:09:16;10.03;65.00
75134;HTU21D;73631;44.326;40.200;2023-11-22T13:11:44;10.03;65.01
75134;HTU21D;73631;44.326;40.200;2023-11-22T13:14:10;10.03;65.05
75134;HTU21D;73631;44.326;40.200;2023-11-22T13:16:40;10.01;65.08
75134;HTU21D;73631;44.326;40.200;2023-11-22T13:19:07;10.00;65.17
75134;HTU21D;73631;44.326;40.200;2023-11-22T13:21:35;9.98;65.22
75134;HTU21D;73631;44.326;40.200;2023-11-22T13:24:02;9.95;65.25
75134;HTU21D;73631;44.326;40.200;2023-11-22T13:26:33;9.92;65.30
75134;HTU21D;73631;44.326;40.200;2023-11-22T13:29:08;9.90;65.33
75134;HTU21D;73631;44.326;40.200;2023-11-22T13:31:35;9.85;65.46
75134;HTU21D;73631;44.326;40.200;2023-11-22T13:34:01;9.82;65.51
75134;HTU21D;73631;44.326;40.200;2023-11-22T13:36:28;9.78;65.57
75134;HTU21D;73631;44.326;40.200;2023-11-22T13:38:54;9.78;65.69
75134;HTU21D;73631;44.326;40.200;2023-11-22T13:41:22;9.76;65.76
75134;HTU21D;73631;44.326;40.200;2023-11-22T13:43:50;9.76;65.83
75134;HTU21D;73631;44.326;40.200;2023-11-22T13:46:17;9.75;65.84
75134;HTU21D;73631;44.326;40.200;2023-11-22T13:48:44;9.75;65.90
75134;HTU21D;73631;44.326;40.200;2023-11-22T13:51:10;9.74;65.98
75134;HTU21D;73631;44.326;40.200;2023-11-22T13:53:40;9.74;66.04
75134;HTU21D;73631;44.326;40.200;2023-11-22T13:56:10;9.71;66.08
75134;HTU21D;73631;44.326;40.200;2023-11-22T13:58:37;9.72;66.12
75134;HTU21D;73631;44.326;40.200;2023-11-22T14:01:04;9.70;66.13
75134;HTU21D;73631;44.326;40.200;2023-11-22T14:03:35;9.66;66.03
75134;HTU21D;73631;44.326;40.200;2023-11-22T14:06:02;9.62;66.17
75134;HTU21D;73631;44.326;40.200;2023-11-22T14:08:31;9.59;66.32
75134;HTU21D;73631;44.326;40.200;2023-11-22T14:10:57;9.55;66.43
75134;HTU21D;73631;44.326;40.200;2023-11-22T14:13:24;9.53;66.48
75134;HTU21D;73631;44.326;40.200;2023-11-22T14:15:50;9.52;66.56
75134;HTU21D;73631;44.326;40.200;2023-11-22T14:18:17;9.51;66.58
75134;HTU21D;73631;44.326;40.200;2023-11-22T14:20:43;9.52;66.62
75134;HTU21D;73631;44.326;40.200;2023-11-22T14:23:19;9.49;66.67
75134;HTU21D;73631;44.326;40.200;2023-11-22T14:25:45;9.47;66.68
75134;HTU21D;73631;44.326;40.200;2023-11-22T14:28:12;9.42;66.77
75134;HTU21D;73631;44.326;40.200;2023-11-22T14:30:39;9.41;66.84
75134;HTU21D;73631;44.326;40.200;2023-11-22T14:33:07;9.39;66.86
75134;HTU21D;73631;44.326;40.200;2023-11-22T14:35:50;9.38;66.88
75134;HTU21D;73631;44.326;40.200;2023-11-22T14:38:17;9.37;66.91
75134;HTU21D;73631;44.326;40.200;2023-11-22T14:40:44;9.36;66.97
75134;HTU21D;73631;44.326;40.200;2023-11-22T14:43:10;9.33;66.95
75134;HTU21D;73631;44.326;40.200;2023-11-22T14:45:38;9.32;66.97
75134;HTU21D;73631;44.326;40.200;2023-11-22T14:48:05;9.29;67.01
75134;HTU21D;73631;44.326;40.200;2023-11-22T14:50:34;9.26;67.05
75134;HTU21D;73631;44.326;40.200;2023-11-22T14:53:18;9.23;67.11
75134;HTU21D;73631;44.326;40.200;2023-11-22T14:55:45;9.23;67.17
75134;HTU21D;73631;44.326;40.200;2023-11-22T14:58:12;9.23;67.20
75134;HTU21D;73631;44.326;40.200;2023-11-22T15:00:38;9.23;67.23
75134;HTU21D;73631;44.326;40.200;2023-11-22T15:03:04;9.22;67.27
75134;HTU21D;73631;44.326;40.200;2023-11-22T15:05:31;9.22;67.24
75134;HTU21D;73631;44.326;40.200;2023-11-22T15:07:58;9.23;67.27
75134;HTU21D;73631;44.326;40.200;2023-11-22T15:10:25;9.20;67.30
75134;HTU21D;73631;44.326;40.200;2023-11-22T15:12:51;9.19;67.34
75134;HTU21D;73631;44.326;40.200;2023-11-22T15:15:20;9.16;67.43
75134;HTU21D;73631;44.326;40.200;2023-11-22T15:17:47;9.14;67.44
75134;HTU21D;73631;44.326;40.200;2023-11-22T15:20:13;9.10;67.45
75134;HTU21D;73631;44.326;40.200;2023-11-22T15:22:41;9.07;67.47
75134;HTU21D;73631;44.326;40.200;2023-11-22T15:25:09;9.03;67.54
75134;HTU21D;73631;44.326;40.200;2023-11-22T15:27:41;9.01;67.59